Time;durP1;ratioP1;P1;durP2;ratioP2;P2;SDS_P1;SDS_P2;PMS_P1;PMS_P2;Temp;Humidity;BMP_temperature;BMP_pressure;BME280_temperature;BME280_humidity;BME280_pressure;Samples;Min_cycle;Max_cycle;Signal;HPM_P1;HPM_P2
2022/01/21 12:46:34;;;;;;;4.93;1.05;;;15.20;73.10;;;;;;2298058;62;30604;-67
2022/01/21 12:49:24;;;;;;;2.10;1.10;;;15.10;73.70;;;;;;2282770;62;30393;-67
2022/01/21 12:52:10;;;;;;;4.07;1.27;;;15.10;74.20;;;;;;2290747;62;29994;-68
2022/01/21 12:57:27;;;;;;;2.45;1.15;;;15.10;76.60;;;;;;2291334;62;30440;-68
2022/01/21 12:59:55;;;;;;;7.93;1.63;;;15.00;77.30;;;;;;2290386;62;30253;-68
2022/01/21 13:02:27;;;;;;;4.43;1.65;;;15.00;77.70;;;;;;2283571;62;30096;-68
2022/01/21 13:05:16;;;;;;;8.63;1.80;;;15.00;77.80;;;;;;2283822;62;30616;-68
2022/01/21 13:08:29;;;;;;;3.28;1.33;;;14.90;76.40;;;;;;2290802;62;30356;-68
2022/01/21 13:10:56;;;;;;;3.60;1.40;;;14.90;76.10;;;;;;2284531;62;30113;-68
2022/01/21 13:13:34;;;;;;;1.98;1.40;;;14.90;78.10;;;;;;2283601;62;30298;-68
2022/01/21 13:16:00;;;;;;;2.65;1.20;;;14.90;78.00;;;;;;2291257;62;30951;-68
2022/01/21 13:18:28;;;;;;;3.08;1.45;;;15.00;78.00;;;;;;2283825;62;30410;-69
2022/01/21 13:20:59;;;;;;;3.78;1.23;;;15.00;77.90;;;;;;2283618;62;30185;-68
2022/01/21 13:23:43;;;;;;;3.77;1.13;;;15.00;77.60;;;;;;2276840;62;30414;-68
2022/01/21 13:26:13;;;;;;;3.38;1.13;;;15.00;76.80;;;;;;2283953;62;31080;-69
2022/01/21 13:29:07;;;;;;;4.57;1.30;;;15.00;77.80;;;;;;2290864;62;30233;-67
2022/01/21 13:31:52;;;;;;;3.83;1.00;;;15.00;76.40;;;;;;2283751;62;30169;-69
2022/01/21 13:34:24;;;;;;;4.75;1.50;;;14.90;76.00;;;;;;2290941;62;30066;-69
2022/01/21 13:36:54;;;;;;;4.07;1.80;;;14.90;77.50;;;;;;2277291;62;30461;-69
2022/01/21 13:39:32;;;;;;;2.97;1.30;;;14.90;77.40;;;;;;2283639;62;30367;-69
2022/01/21 13:42:07;;;;;;;4.20;1.48;;;15.00;77.10;;;;;;2283454;62;30147;-69
2022/01/21 13:44:34;;;;;;;5.80;1.50;;;15.00;77.10;;;;;;2291033;62;30265;-70
2022/01/21 13:47:02;;;;;;;3.20;1.67;;;15.00;77.10;;;;;;2279312;62;30952;-69
2022/01/21 13:49:30;;;;;;;2.00;1.40;;;15.00;77.00;;;;;;2283020;62;30497;-70
2022/01/21 13:52:03;;;;;;;5.63;1.70;;;15.10;76.80;;;;;;2283364;62;30061;-70
2022/01/21 13:54:43;;;;;;;4.97;1.70;;;15.10;76.50;;;;;;2290755;62;30372;-71
2022/01/21 13:57:09;;;;;;;5.15;1.70;;;15.20;75.50;;;;;;2272345;62;30201;-71
2022/01/21 13:59:44;;;;;;;16.35;2.55;;;15.20;76.20;;;;;;2285250;62;30366;-70
2022/01/21 14:02:12;;;;;;;5.20;2.00;;;15.30;76.00;;;;;;2284501;62;30594;-69
2022/01/21 14:04:38;;;;;;;11.02;2.63;;;15.30;75.80;;;;;;2270929;62;29997;-69
2022/01/21 14:07:19;;;;;;;8.13;2.00;;;15.20;75.20;;;;;;2284910;62;30047;-69
2022/01/21 14:09:45;;;;;;;5.03;1.65;;;15.20;75.70;;;;;;2278611;62;30722;-70
2022/01/21 14:12:11;;;;;;;3.90;1.50;;;15.10;75.50;;;;;;2285066;62;30318;-68
2022/01/21 14:14:37;;;;;;;5.25;1.60;;;15.10;75.50;;;;;;2285128;62;30603;-69
2022/01/21 14:17:03;;;;;;;7.70;1.90;;;15.10;75.50;;;;;;2284783;62;31943;-69
2022/01/21 14:19:30;;;;;;;4.45;1.80;;;15.10;75.40;;;;;;2285314;62;30138;-68
2022/01/21 14:22:03;;;;;;;5.07;1.60;;;15.10;75.50;;;;;;2285253;62;30098;-69
2022/01/21 14:24:29;;;;;;;5.97;2.08;;;15.10;75.20;;;;;;2284978;62;30152;-69
2022/01/21 14:26:59;;;;;;;5.13;1.85;;;15.00;75.50;;;;;;2285178;62;30852;-70
2022/01/21 14:29:28;;;;;;;3.85;1.60;;;15.00;75.50;;;;;;2285201;62;30561;-69
2022/01/21 14:31:55;;;;;;;3.72;1.45;;;15.00;75.50;;;;;;2285063;62;30108;-68
2022/01/21 14:34:23;;;;;;;8.50;2.30;;;15.00;75.40;;;;;;2285278;62;30127;-77
2022/01/21 14:37:11;;;;;;;4.60;1.70;;;15.20;76.40;;;;;;2277777;62;31223;-76
2022/01/21 14:39:44;;;;;;;5.82;2.00;;;15.40;76.10;;;;;;2285135;62;30064;-76
2022/01/21 14:42:10;;;;;;;6.00;1.75;;;15.70;77.30;;;;;;2271173;62;30161;-76
2022/01/21 14:44:39;;;;;;;4.50;1.63;;;15.90;78.20;;;;;;2270590;62;30328;-76
2022/01/21 14:47:12;;;;;;;4.88;1.65;;;16.10;77.90;;;;;;2285403;62;30883;-75
2022/01/21 14:49:41;;;;;;;2.58;1.30;;;16.10;78.10;;;;;;2272620;62;30314;-72
2022/01/21 14:55:09;;;;;;;4.50;1.30;;;16.30;76.70;;;;;;2280627;62;30267;-72
2022/01/21 14:57:35;;;;;;;6.97;1.30;;;16.40;75.90;;;;;;2270338;62;31046;-72
2022/01/21 15:00:05;;;;;;;2.42;1.30;;;16.40;75.40;;;;;;2271524;62;30517;-74
2022/01/21 15:02:41;;;;;;;5.68;1.65;;;16.50;74.80;;;;;;2277717;62;30228;-72
2022/01/21 15:05:14;;;;;;;2.83;1.40;;;16.50;73.40;;;;;;2285034;62;30234;-72
2022/01/21 15:07:41;;;;;;;4.45;1.17;;;16.50;73.70;;;;;;2277608;62;30841;-72
2022/01/21 15:10:29;;;;;;;5.30;1.80;;;16.50;73.20;;;;;;2270982;62;31718;-75
2022/01/21 15:15:53;;;;;;;3.75;1.48;;;16.70;72.50;;;;;;2276197;62;30083;-75
2022/01/21 15:18:19;;;;;;;6.25;1.90;;;16.70;71.80;;;;;;2278360;62;30281;-74
2022/01/21 15:20:47;;;;;;;4.90;1.55;;;16.70;71.90;;;;;;2276731;62;30387;-73
2022/01/21 15:23:13;;;;;;;2.33;1.38;;;16.70;71.70;;;;;;2269263;62;30233;-73
2022/01/21 15:25:40;;;;;;;26.38;3.00;;;16.70;71.70;;;;;;2269384;62;30359;-73
2022/01/21 15:28:06;;;;;;;5.72;1.50;;;16.70;71.60;;;;;;2269053;62;31029;-73
2022/01/21 15:30:32;;;;;;;5.28;1.30;;;16.70;71.60;;;;;;2276691;62;30672;-74
2022/01/21 15:32:59;;;;;;;4.05;1.63;;;16.70;71.50;;;;;;2269356;62;30277;-73
2022/01/21 15:35:25;;;;;;;5.55;1.80;;;16.70;71.50;;;;;;2276587;62;30052;-73
2022/01/21 15:37:51;;;;;;;4.65;1.65;;;16.70;71.40;;;;;;2276473;62;30232;-74
2022/01/21 15:40:17;;;;;;;3.63;1.42;;;16.70;71.30;;;;;;2276652;62;30154;-73
2022/01/21 15:42:43;;;;;;;3.67;1.33;;;16.70;71.40;;;;;;2277043;62;30245;-73
2022/01/21 15:45:10;;;;;;;2.25;1.13;;;16.70;71.30;;;;;;2261008;62;30610;-74
2022/01/21 15:47:36;;;;;;;3.38;1.20;;;16.70;71.20;;;;;;2267391;62;30848;-73
2022/01/21 15:50:04;;;;;;;3.42;1.27;;;16.70;71.20;;;;;;2261340;62;30451;-71
2022/01/21 15:52:30;;;;;;;4.78;1.15;;;16.70;71.20;;;;;;2267926;62;30365;-72
2022/01/21 15:54:56;;;;;;;2.60;1.15;;;16.70;71.20;;;;;;2266236;62;30054;-73
2022/01/21 15:57:22;;;;;;;3.42;1.52;;;16.70;71.20;;;;;;2267639;62;30913;-73
2022/01/21 15:59:48;;;;;;;3.88;1.45;;;16.70;71.20;;;;;;2268544;62;30438;-75
2022/01/21 16:02:13;;;;;;;2.55;1.13;;;16.70;71.10;;;;;;2268042;62;30178;-73
2022/01/21 16:04:39;;;;;;;4.15;1.23;;;16.70;71.20;;;;;;2268330;62;30021;-72
2022/01/21 16:07:05;;;;;;;2.60;1.00;;;16.70;71.20;;;;;;2268183;62;30268;-73
2022/01/21 16:09:31;;;;;;;4.20;1.23;;;16.70;71.20;;;;;;2267453;62;30233;-72
2022/01/21 16:12:00;;;;;;;4.18;1.58;;;16.70;71.20;;;;;;2268335;62;30145;-73
2022/01/21 16:14:26;;;;;;;2.08;1.20;;;16.70;71.20;;;;;;2268133;62;30080;-73
2022/01/21 16:16:53;;;;;;;5.45;1.13;;;16.70;71.20;;;;;;2267336;62;30482;-75
2022/01/21 16:19:19;;;;;;;3.58;1.00;;;16.70;71.20;;;;;;2260728;62;30743;-74
2022/01/21 16:21:46;;;;;;;2.05;1.27;;;16.60;71.20;;;;;;2267108;62;30188;-74
2022/01/21 16:24:12;;;;;;;3.25;1.20;;;16.60;71.10;;;;;;2267250;62;31014;-74
2022/01/21 16:26:41;;;;;;;3.58;1.23;;;16.60;71.20;;;;;;2267782;62;30226;-74
2022/01/21 16:29:10;;;;;;;4.85;1.48;;;16.50;71.10;;;;;;2267635;62;31312;-73
2022/01/21 16:31:40;;;;;;;5.97;1.38;;;16.50;71.10;;;;;;2266126;62;30216;-74
2022/01/21 16:34:05;;;;;;;2.63;1.10;;;16.50;71.20;;;;;;2262502;62;30284;-73
2022/01/21 16:36:34;;;;;;;4.68;1.50;;;16.50;71.20;;;;;;2266216;62;30786;-73
2022/01/21 16:39:00;;;;;;;1.58;1.02;;;16.50;71.20;;;;;;2266836;62;30202;-73
2022/01/21 16:41:26;;;;;;;2.78;1.20;;;16.40;71.10;;;;;;2267565;62;30005;-74
2022/01/21 16:43:54;;;;;;;2.58;1.20;;;16.40;71.20;;;;;;2260557;62;30207;-73
2022/01/21 16:46:20;;;;;;;2.05;0.95;;;16.40;71.10;;;;;;2267215;62;30207;-73
2022/01/21 16:48:46;;;;;;;1.25;0.57;;;16.40;71.20;;;;;;2267439;62;30467;-73
2022/01/21 16:51:16;;;;;;;1.88;1.00;;;16.40;71.10;;;;;;2260084;62;30660;-74
2022/01/21 16:53:42;;;;;;;2.35;0.90;;;16.40;71.20;;;;;;2268099;62;30264;-74
2022/01/21 16:56:11;;;;;;;1.95;1.10;;;16.30;71.10;;;;;;2267774;62;30088;-74
2022/01/21 16:58:37;;;;;;;2.45;1.27;;;16.40;71.90;;;;;;2260387;62;30658;-74
2022/01/21 17:01:03;;;;;;;2.58;0.70;;;16.40;71.20;;;;;;2268051;62;30164;-74
2022/01/21 17:03:29;;;;;;;2.35;0.93;;;16.50;71.20;;;;;;2267331;62;30335;-74
2022/01/21 17:05:55;;;;;;;2.35;1.25;;;16.50;71.20;;;;;;2267468;62;30177;-74
2022/01/21 17:08:21;;;;;;;2.72;1.00;;;16.50;71.20;;;;;;2267892;62;30277;-74
2022/01/21 17:10:47;;;;;;;3.15;1.13;;;16.50;71.20;;;;;;2268154;62;30201;-74
2022/01/21 17:13:14;;;;;;;2.78;1.00;;;16.50;71.20;;;;;;2267235;62;30083;-74
2022/01/21 17:15:40;;;;;;;2.53;1.45;;;16.50;71.20;;;;;;2260490;62;30874;-74
2022/01/21 17:18:05;;;;;;;1.60;0.90;;;16.50;71.20;;;;;;2267370;62;30565;-75
2022/01/21 17:20:32;;;;;;;2.03;1.02;;;16.50;71.20;;;;;;2266981;62;30362;-74
2022/01/21 17:22:58;;;;;;;2.53;1.10;;;16.50;71.20;;;;;;2267930;62;30085;-74
2022/01/21 17:25:24;;;;;;;1.77;0.95;;;16.50;71.30;;;;;;2267014;62;32312;-74
2022/01/21 17:27:50;;;;;;;1.88;0.90;;;16.50;71.20;;;;;;2267451;62;30861;-75
2022/01/21 17:30:19;;;;;;;2.05;0.93;;;16.50;71.20;;;;;;2267858;62;30236;-74
2022/01/21 17:32:46;;;;;;;1.00;0.90;;;16.50;71.20;;;;;;2268263;62;30249;-74
2022/01/21 17:35:12;;;;;;;1.48;1.02;;;16.50;71.30;;;;;;2268244;62;30211;-75
2022/01/21 17:37:38;;;;;;;2.15;1.00;;;16.50;71.30;;;;;;2268710;62;30605;-75
2022/01/21 17:40:08;;;;;;;2.42;1.00;;;16.50;71.30;;;;;;2268390;62;30255;-74
2022/01/21 17:42:34;;;;;;;2.22;0.90;;;16.50;71.30;;;;;;2268656;62;30286;-75
2022/01/21 17:45:00;;;;;;;2.17;1.10;;;16.50;71.30;;;;;;2272162;62;30227;-75
2022/01/21 17:47:26;;;;;;;3.00;1.13;;;16.50;71.40;;;;;;2276512;62;30272;-74
2022/01/21 17:49:52;;;;;;;1.98;0.93;;;16.50;71.40;;;;;;2276718;62;30235;-74
2022/01/21 17:52:20;;;;;;;1.77;1.15;;;16.50;71.40;;;;;;2269822;62;30186;-74
2022/01/21 17:54:46;;;;;;;2.45;1.08;;;16.50;71.40;;;;;;2277024;62;30226;-75
2022/01/21 17:57:12;;;;;;;1.95;0.98;;;16.40;71.40;;;;;;2276681;62;30371;-75
2022/01/21 17:59:38;;;;;;;2.13;1.00;;;16.40;71.30;;;;;;2277233;62;30699;-74
2022/01/21 18:02:04;;;;;;;1.63;0.85;;;16.40;72.10;;;;;;2277094;62;30189;-75
2022/01/21 18:04:30;;;;;;;2.38;1.08;;;16.40;71.40;;;;;;2269813;62;30265;-74
2022/01/21 18:06:56;;;;;;;1.30;1.00;;;16.40;71.40;;;;;;2277057;62;30845;-75
2022/01/21 18:09:31;;;;;;;2.20;1.20;;;16.40;71.40;;;;;;2276336;62;30240;-74
2022/01/21 18:11:57;;;;;;;1.58;1.00;;;16.40;71.40;;;;;;2276899;62;30090;-74
2022/01/21 18:14:22;;;;;;;2.92;1.17;;;16.40;71.40;;;;;;2277067;62;31196;-73
2022/01/21 18:16:51;;;;;;;1.73;0.95;;;16.40;71.40;;;;;;2276768;62;30080;-74
2022/01/21 18:22:22;;;;;;;22.83;2.80;;;16.40;71.20;;;;;;2251174;63;31086;-74
2022/01/21 18:24:48;;;;;;;3.78;1.45;;;16.40;71.30;;;;;;2271449;62;30371;-77
2022/01/21 18:27:14;;;;;;;7.40;1.50;;;16.40;71.20;;;;;;2276198;62;30394;-77
2022/01/21 18:29:40;;;;;;;4.47;1.38;;;16.40;71.20;;;;;;2276381;62;30362;-76
2022/01/21 18:32:06;;;;;;;4.82;1.40;;;16.40;71.30;;;;;;2276940;62;30206;-76
2022/01/21 18:34:33;;;;;;;4.10;1.65;;;16.50;71.40;;;;;;2276108;62;30297;-76
2022/01/21 18:36:59;;;;;;;4.35;1.17;;;16.50;71.50;;;;;;2276756;62;30641;-77
2022/01/21 18:39:26;;;;;;;5.60;1.90;;;16.50;71.50;;;;;;2276916;62;30285;-76
2022/01/21 18:41:52;;;;;;;5.60;1.60;;;16.60;71.60;;;;;;2276790;62;30122;-76
2022/01/21 18:44:21;;;;;;;4.55;1.60;;;16.60;71.60;;;;;;2277314;62;30448;-76
2022/01/21 18:46:49;;;;;;;6.00;1.65;;;16.60;71.60;;;;;;2284792;62;30325;-75
2022/01/21 18:49:15;;;;;;;6.45;1.55;;;16.60;71.60;;;;;;2284900;62;30077;-76
2022/01/21 18:51:45;;;;;;;3.78;1.45;;;16.60;71.60;;;;;;2284520;62;30063;-76
2022/01/21 18:54:12;;;;;;;3.10;1.23;;;16.60;71.50;;;;;;2271160;62;31185;-80
2022/01/21 18:56:39;;;;;;;3.55;1.38;;;16.70;71.60;;;;;;2285020;62;30728;-76
2022/01/21 18:59:08;;;;;;;4.15;1.40;;;16.70;71.60;;;;;;2284695;62;30171;-76
2022/01/21 19:01:38;;;;;;;5.18;1.42;;;16.70;71.50;;;;;;2277807;62;30105;-75
2022/01/21 19:04:05;;;;;;;4.95;1.50;;;16.70;71.50;;;;;;2285031;62;32174;-75
2022/01/21 19:06:35;;;;;;;4.40;1.30;;;16.80;71.60;;;;;;2284700;62;30143;-76
2022/01/21 19:09:02;;;;;;;3.35;1.38;;;16.80;71.60;;;;;;2283920;62;30216;-75
2022/01/21 19:11:28;;;;;;;1.55;1.02;;;16.80;71.50;;;;;;2274679;62;30357;-76
2022/01/21 19:13:54;;;;;;;6.65;1.92;;;16.80;71.40;;;;;;2272966;62;30792;-75
2022/01/21 19:16:20;;;;;;;4.95;1.38;;;16.90;71.40;;;;;;2276933;62;30212;-75
2022/01/21 19:18:46;;;;;;;5.35;1.70;;;16.90;71.30;;;;;;2277385;62;30319;-73
2022/01/21 19:21:14;;;;;;;2.72;1.40;;;16.90;71.30;;;;;;2284948;62;30289;-74
2022/01/21 19:23:40;;;;;;;2.35;1.33;;;16.90;71.20;;;;;;2285003;62;30159;-75
2022/01/21 19:26:08;;;;;;;4.63;1.50;;;17.00;71.10;;;;;;2270379;62;30357;-84
2022/01/21 19:28:37;;;;;;;3.63;1.60;;;17.00;70.90;;;;;;2284914;62;30180;-84
2022/01/21 19:31:04;;;;;;;2.92;1.90;;;17.10;70.70;;;;;;2266939;62;30345;-85
2022/01/21 19:33:30;;;;;;;4.80;1.60;;;17.10;70.50;;;;;;2267481;62;32269;-89
2022/01/21 19:35:57;;;;;;;2.70;1.30;;;17.20;70.40;;;;;;2275393;62;30638;-87
2022/01/21 19:38:23;;;;;;;2.70;1.50;;;17.20;70.30;;;;;;2275469;62;30251;-85
2022/01/21 19:40:49;;;;;;;2.17;1.50;;;17.20;70.20;;;;;;2267906;62;30209;-85
2022/01/21 19:43:17;;;;;;;3.05;1.23;;;17.20;70.10;;;;;;2268016;62;31092;-86
2022/01/21 19:45:46;;;;;;;3.88;1.50;;;17.20;70.00;;;;;;2278784;62;31306;-84
2022/01/21 19:48:19;;;;;;;1.70;1.27;;;17.30;70.00;;;;;;2277714;62;30389;-84
2022/01/21 19:50:45;;;;;;;3.65;1.42;;;17.30;69.90;;;;;;2283443;62;29999;-87
2022/01/21 19:53:13;;;;;;;2.33;1.25;;;17.30;69.80;;;;;;2281277;62;32403;-82
2022/01/21 19:55:44;;;;;;;2.17;1.23;;;17.30;69.60;;;;;;2283095;62;30795;-84
2022/01/21 19:58:20;;;;;;;3.47;1.40;;;17.30;69.60;;;;;;2277301;62;30182;-77
2022/01/21 20:08:51;;;;;;;2.70;1.35;;;17.40;69.60;;;;;;2268087;62;30826;-78
2022/01/21 20:14:05;;;;;;;2.40;1.17;;;17.40;69.60;;;;;;2268790;62;30839;-79
2022/01/21 20:16:32;;;;;;;4.38;1.35;;;17.40;69.60;;;;;;2279092;62;30189;-78
2022/01/21 20:19:00;;;;;;;2.22;1.40;;;17.40;69.60;;;;;;2275294;62;30175;-78
2022/01/21 20:21:27;;;;;;;2.72;1.30;;;17.40;69.60;;;;;;2275165;62;30106;-78
2022/01/21 20:23:55;;;;;;;3.22;1.38;;;17.40;69.60;;;;;;2267733;62;31642;-79
2022/01/21 20:26:21;;;;;;;2.58;1.40;;;17.40;69.60;;;;;;2267920;62;30081;-77
2022/01/21 20:28:48;;;;;;;2.45;1.20;;;17.40;69.60;;;;;;2267747;62;30162;-78
2022/01/21 20:31:14;;;;;;;2.90;1.52;;;17.40;69.60;;;;;;2267840;62;30343;-80
2022/01/21 20:33:41;;;;;;;4.28;1.67;;;17.30;69.50;;;;;;2261195;62;30837;-80
2022/01/21 20:36:11;;;;;;;3.08;1.77;;;17.40;69.60;;;;;;2274787;62;30671;-80
2022/01/21 20:38:42;;;;;;;4.07;1.70;;;17.30;69.50;;;;;;2261399;62;30348;-77
2022/01/21 20:41:21;;;;;;;2.45;1.33;;;17.30;69.50;;;;;;2268026;62;30293;-78
2022/01/21 20:43:47;;;;;;;3.35;1.63;;;17.30;69.50;;;;;;2268299;62;31084;-78
2022/01/21 20:46:13;;;;;;;4.75;1.80;;;17.30;69.50;;;;;;2275367;62;30430;-78
2022/01/21 20:48:39;;;;;;;2.75;1.30;;;17.30;69.50;;;;;;2283204;62;30289;-77
2022/01/21 20:51:10;;;;;;;4.32;1.77;;;17.30;69.50;;;;;;2275605;62;30574;-76
2022/01/21 20:53:36;;;;;;;3.13;1.47;;;17.30;69.50;;;;;;2276136;62;30877;-74
2022/01/21 20:56:05;;;;;;;3.95;1.50;;;17.30;69.50;;;;;;2283199;62;30282;-74
2022/01/21 20:58:34;;;;;;;6.18;1.60;;;17.30;69.50;;;;;;2283119;62;30173;-74
2022/01/21 21:01:00;;;;;;;3.47;1.55;;;17.30;69.50;;;;;;2275464;62;30234;-75
2022/01/21 21:03:26;;;;;;;3.30;1.77;;;17.30;69.40;;;;;;2272004;62;30121;-74
2022/01/21 21:05:52;;;;;;;3.75;1.80;;;17.30;69.40;;;;;;2276484;62;30295;-74
2022/01/21 21:08:18;;;;;;;5.30;1.77;;;17.30;69.40;;;;;;2262318;62;30144;-74
2022/01/21 21:10:45;;;;;;;5.25;2.03;;;17.30;69.40;;;;;;2268558;62;30606;-76
2022/01/21 21:13:14;;;;;;;3.90;1.55;;;17.30;69.40;;;;;;2268784;62;30251;-76
2022/01/21 21:15:40;;;;;;;4.55;1.70;;;17.30;69.40;;;;;;2282335;62;30513;-75
2022/01/21 21:18:28;;;;;;;2.92;1.77;;;17.30;69.40;;;;;;2272773;62;30099;-76
2022/01/21 23:00:47;;;;;;;2.40;1.38;;;17.00;70.00;;;;;;2275694;62;30753;-75
2022/01/21 23:03:14;;;;;;;3.42;1.77;;;17.00;70.10;;;;;;2268528;62;30014;-75
2022/01/21 23:05:43;;;;;;;3.25;1.75;;;17.00;70.10;;;;;;2268029;62;30179;-77
2022/01/21 23:08:10;;;;;;;2.85;1.50;;;17.00;70.10;;;;;;2268287;62;30058;-78
2022/01/21 23:10:39;;;;;;;4.50;2.00;;;17.00;70.10;;;;;;2261176;62;30653;-76
2022/01/21 23:13:05;;;;;;;2.65;1.33;;;17.00;70.10;;;;;;2263294;62;30742;-74
2022/01/21 23:15:35;;;;;;;3.72;1.50;;;17.00;70.10;;;;;;2276404;62;30289;-77
2022/01/21 23:18:05;;;;;;;1.83;1.30;;;17.00;70.10;;;;;;2276681;62;30073;-76
2022/01/21 23:20:31;;;;;;;2.05;1.20;;;17.00;70.00;;;;;;2276417;62;30363;-77
2022/01/21 23:22:57;;;;;;;2.05;1.20;;;16.90;70.00;;;;;;2269352;62;30589;-78
2022/01/21 23:25:28;;;;;;;5.18;1.98;;;16.90;70.10;;;;;;2276167;62;30429;-80
2022/01/21 23:27:57;;;;;;;2.75;1.40;;;16.90;70.30;;;;;;2283820;62;30292;-80
2022/01/21 23:30:25;;;;;;;3.30;1.50;;;16.90;71.00;;;;;;2283483;62;30320;-83
2022/01/21 23:32:51;;;;;;;7.45;1.67;;;16.90;70.30;;;;;;2276436;62;30167;-80
